Terminal Aerodrome Forecast
Issued by NWS

Home | Current Version | Previous Version | Text Only | Print | Product List | Glossary On
Versions: 1 2 3 4 5 6 7 8 9 10 11 12 13 14 15 16 17 18 19 20 21 22 23 24 25 26 27 28 29 30 31
000
FTUS41 KCTP 221029 AAA
TAFUNV
TAF AMD
KUNV 221029Z 2210/2306 27008KT P6SM -SHRASN SCT060 BKN090
      TEMPO 2210/2212 4SM -SHSN OVC050
     FM221200 31012G19KT P6SM BKN040=

USA.gov is the U.S. government's official web portal to all federal, state and local government web resources and services.